Time;durP1;ratioP1;P1;durP2;ratioP2;P2;SDS_P1;SDS_P2;PMS_P1;PMS_P2;Temp;Humidity;BMP_temperature;BMP_pressure;BME280_temperature;BME280_humidity;BME280_pressure;Samples;Min_cycle;Max_cycle;Signal;HPM_P1;HPM_P2
2021/04/23 00:00:44;;;;;;;5.83;2.50;;;;;;;7.28;45.09;97446.09;4972586;28;20579;-72
2021/04/23 00:03:18;;;;;;;5.27;2.77;;;;;;;7.21;45.28;97444.44;4972330;28;20243;-72
2021/04/23 00:05:45;;;;;;;2.83;2.20;;;;;;;7.21;45.37;97445.25;4973086;28;20235;-72
2021/04/23 00:08:12;;;;;;;3.40;2.57;;;;;;;7.16;44.70;97446.81;4971722;28;20191;-73
2021/04/23 00:10:38;;;;;;;4.50;2.47;;;;;;;7.21;45.11;97447.03;4971828;28;20199;-72
2021/04/23 00:13:04;;;;;;;2.97;2.00;;;;;;;7.39;44.83;97452.59;4971499;28;20189;-72
2021/04/23 00:15:29;;;;;;;4.33;2.27;;;;;;;7.29;45.28;97447.72;4955389;28;20193;-72
2021/04/23 00:17:55;;;;;;;4.43;2.17;;;;;;;7.48;44.81;97451.44;4953728;28;20646;-71
2021/04/23 00:20:27;;;;;;;6.23;2.90;;;;;;;7.58;44.28;97444.09;4955070;28;20185;-72
2021/04/23 00:22:58;;;;;;;5.17;2.93;;;;;;;7.40;43.92;97449.00;4955303;28;20192;-72
2021/04/23 00:25:26;;;;;;;3.80;2.20;;;;;;;7.19;44.14;97447.22;4972745;28;20180;-72
2021/04/23 00:27:57;;;;;;;4.93;2.57;;;;;;;7.06;44.37;97450.53;4971512;28;20220;-72
2021/04/23 00:30:26;;;;;;;6.33;2.40;;;;;;;7.04;44.71;97449.09;4972486;28;20188;-72
2021/04/23 00:32:54;;;;;;;8.43;2.90;;;;;;;6.95;44.35;97445.84;4971521;28;20196;-72
2021/04/23 00:35:23;;;;;;;8.87;2.63;;;;;;;6.85;45.10;97444.53;4972021;28;20191;-72
2021/04/23 00:37:49;;;;;;;5.37;2.83;;;;;;;6.77;45.25;97455.88;4972179;28;20208;-72
2021/04/23 00:40:21;;;;;;;4.23;2.70;;;;;;;6.74;45.36;97452.84;4971992;28;20189;-72
2021/04/23 00:42:47;;;;;;;7.73;3.40;;;;;;;6.61;45.83;97438.72;4954879;28;20177;-72
2021/04/23 00:45:16;;;;;;;5.50;2.63;;;;;;;6.56;45.77;97440.25;4954622;28;20267;-72
2021/04/23 00:47:45;;;;;;;5.87;2.70;;;;;;;6.45;46.30;97445.94;4972199;28;20185;-72
2021/04/23 00:50:11;;;;;;;6.10;3.20;;;;;;;6.42;46.58;97449.72;4974054;28;20892;-73
2021/04/23 00:52:37;;;;;;;7.47;3.57;;;;;;;6.29;47.14;97446.16;4976072;28;20184;-72
2021/04/23 00:55:04;;;;;;;7.93;3.90;;;;;;;6.42;47.36;97448.91;4974628;28;20542;-72
2021/04/23 00:57:30;;;;;;;6.87;3.43;;;;;;;6.42;46.95;97452.31;4975260;28;20259;-72
2021/04/23 00:59:55;;;;;;;10.67;3.77;;;;;;;6.45;47.29;97451.97;4975143;28;20216;-72
2021/04/23 01:02:21;;;;;;;9.53;4.33;;;;;;;6.38;47.43;97445.06;4958701;28;20199;-72
2021/04/23 01:04:46;;;;;;;10.90;4.90;;;;;;;6.36;47.86;97447.84;4975326;28;20207;-72
2021/04/23 01:07:12;;;;;;;9.40;4.57;;;;;;;6.42;47.40;97439.28;4975069;28;20180;-72
2021/04/23 01:09:37;;;;;;;12.93;5.30;;;;;;;6.39;47.54;97442.28;4975642;28;20271;-72
2021/04/23 01:12:05;;;;;;;7.13;4.40;;;;;;;6.33;47.95;97445.63;4974308;28;20243;-73
2021/04/23 01:14:31;;;;;;;8.97;4.43;;;;;;;6.18;48.15;97445.66;4958339;28;20213;-72
2021/04/23 01:16:57;;;;;;;8.90;4.53;;;;;;;6.13;48.77;97447.97;4974509;28;20263;-72
2021/04/23 01:19:25;;;;;;;12.37;4.77;;;;;;;6.09;49.53;97438.91;4975516;28;20304;-72
2021/04/23 01:21:51;;;;;;;12.77;5.20;;;;;;;6.00;50.12;97442.63;4957322;28;20193;-71
2021/04/23 01:24:18;;;;;;;9.77;4.43;;;;;;;5.85;50.78;97434.78;4975325;28;20553;-72
2021/04/23 01:26:49;;;;;;;10.07;4.90;;;;;;;5.85;50.73;97439.97;4975331;28;20177;-72
2021/04/23 01:29:16;;;;;;;10.87;4.70;;;;;;;5.73;51.02;97438.03;4975440;28;20204;-72
2021/04/23 01:31:46;;;;;;;9.77;4.47;;;;;;;5.72;50.64;97442.44;4957855;28;20243;-72
2021/04/23 01:34:14;;;;;;;7.00;4.07;;;;;;;5.72;50.56;97436.41;4974846;28;20188;-73
2021/04/23 01:36:40;;;;;;;8.40;3.70;;;;;;;5.69;51.16;97436.75;4974850;28;20662;-72
2021/04/23 01:39:10;;;;;;;11.63;4.03;;;;;;;5.61;50.98;97440.28;4974265;28;20212;-72
2021/04/23 01:41:35;;;;;;;9.23;3.77;;;;;;;5.64;51.12;97437.31;4957725;28;20184;-72
2021/04/23 01:44:02;;;;;;;6.73;3.33;;;;;;;5.71;50.56;97440.81;4956643;28;20189;-72
2021/04/23 01:46:28;;;;;;;7.33;3.63;;;;;;;5.80;50.72;97439.72;4975259;28;20197;-72
2021/04/23 01:48:54;;;;;;;9.63;3.40;;;;;;;5.76;50.39;97443.69;4974205;28;20211;-71
2021/04/23 01:51:20;;;;;;;9.70;3.17;;;;;;;5.68;50.48;97445.56;4975130;28;20312;-72
2021/04/23 01:53:45;;;;;;;5.20;2.90;;;;;;;5.63;50.79;97451.28;4974500;28;20196;-72
2021/04/23 01:56:11;;;;;;;7.57;3.50;;;;;;;5.62;50.58;97456.69;4972911;28;20250;-72
2021/04/23 01:58:38;;;;;;;6.20;2.87;;;;;;;5.54;50.54;97448.97;4974261;28;20303;-72
2021/04/23 02:01:06;;;;;;;8.30;3.40;;;;;;;5.42;50.94;97449.41;4970808;28;20199;-72
2021/04/23 02:03:31;;;;;;;5.20;2.73;;;;;;;5.35;51.44;97458.88;4975054;28;20195;-72
2021/04/23 02:05:57;;;;;;;6.17;2.97;;;;;;;5.45;51.36;97458.66;4973631;28;20188;-72
2021/04/23 02:08:26;;;;;;;6.00;3.00;;;;;;;5.36;50.96;97451.88;4974517;28;20191;-72
2021/04/23 02:11:05;;;;;;;6.63;2.70;;;;;;;5.31;51.62;97459.41;4973988;28;20581;-71
2021/04/23 02:13:30;;;;;;;4.70;2.80;;;;;;;5.28;51.54;97465.78;4957121;28;20216;-72
2021/04/23 02:15:57;;;;;;;5.50;3.00;;;;;;;5.46;50.96;97456.84;4973218;28;20193;-71
2021/04/23 02:18:24;;;;;;;6.27;3.00;;;;;;;5.36;51.63;97454.50;4974285;28;20287;-72
2021/04/23 02:20:50;;;;;;;9.63;3.10;;;;;;;5.39;51.18;97460.16;4973904;28;20197;-72
2021/04/23 02:23:18;;;;;;;7.93;3.37;;;;;;;5.36;51.02;97460.50;4973709;28;20243;-72
2021/04/23 02:25:45;;;;;;;5.00;2.67;;;;;;;5.36;51.57;97465.69;4974232;28;20244;-73
2021/04/23 02:28:10;;;;;;;6.30;3.13;;;;;;;5.39;51.52;97464.56;4973846;28;20208;-72
2021/04/23 02:30:42;;;;;;;6.07;3.00;;;;;;;5.33;51.61;97473.88;4974106;28;20679;-73
2021/04/23 02:33:11;;;;;;;5.77;2.70;;;;;;;5.33;51.71;97470.44;4958524;28;20212;-72
2021/04/23 02:35:37;;;;;;;6.93;3.33;;;;;;;5.28;52.22;97471.00;4973920;28;20216;-73
2021/04/23 02:38:04;;;;;;;5.60;3.13;;;;;;;5.14;52.73;97471.75;4972661;28;20298;-72
2021/04/23 02:40:30;;;;;;;7.60;3.07;;;;;;;5.19;53.31;97472.03;4974131;28;20201;-73
2021/04/23 02:42:58;;;;;;;6.03;2.80;;;;;;;5.22;52.45;97470.88;4973061;28;20654;-71
2021/04/23 02:45:27;;;;;;;8.13;3.53;;;;;;;5.17;52.71;97468.81;4973534;28;20173;-73
2021/04/23 02:47:52;;;;;;;6.80;2.63;;;;;;;5.26;52.58;97472.94;4973558;28;20201;-72
2021/04/23 02:50:21;;;;;;;6.70;3.10;;;;;;;5.28;53.04;97478.78;4974114;28;20195;-73
2021/04/23 02:52:46;;;;;;;10.20;3.10;;;;;;;5.15;53.53;97473.38;4973834;28;20196;-72
2021/04/23 02:55:15;;;;;;;7.80;2.90;;;;;;;5.15;52.92;97472.56;4971890;28;20814;-73
2021/04/23 02:57:40;;;;;;;5.60;2.70;;;;;;;5.05;53.95;97482.38;4973746;28;20180;-73
2021/04/23 03:00:14;;;;;;;6.43;2.97;;;;;;;5.14;53.79;97478.72;4972823;28;20196;-72
2021/04/23 03:02:40;;;;;;;4.87;2.77;;;;;;;5.05;53.81;97479.78;4956361;28;20684;-72
2021/04/23 03:05:07;;;;;;;7.53;2.97;;;;;;;4.97;54.07;97473.66;4940476;28;20197;-73
2021/04/23 03:07:34;;;;;;;6.10;2.60;;;;;;;4.93;54.87;97472.41;4973286;28;20188;-73
2021/04/23 03:09:59;;;;;;;5.80;3.10;;;;;;;4.87;54.90;97478.28;4972835;28;20197;-72
2021/04/23 03:12:25;;;;;;;7.13;2.90;;;;;;;4.90;54.62;97477.94;4972952;28;20661;-73
2021/04/23 03:14:50;;;;;;;4.63;2.97;;;;;;;4.86;55.31;97481.88;4972326;28;20185;-73
2021/04/23 03:17:16;;;;;;;7.87;3.80;;;;;;;4.87;54.94;97474.88;4972892;28;20247;-74
2021/04/23 03:19:41;;;;;;;5.53;3.07;;;;;;;4.77;55.41;97476.91;4973336;28;20223;-73
2021/04/23 03:22:06;;;;;;;6.57;2.80;;;;;;;4.74;56.33;97480.66;4972704;28;20203;-73
2021/04/23 03:24:32;;;;;;;5.33;2.80;;;;;;;4.77;55.97;97484.69;4955924;28;20185;-74
2021/04/23 03:26:57;;;;;;;4.83;3.10;;;;;;;4.72;56.71;97487.81;4972492;28;20546;-73
2021/04/23 03:29:23;;;;;;;4.97;3.00;;;;;;;4.69;57.13;97482.94;4972872;28;20219;-74
2021/04/23 03:31:49;;;;;;;4.17;3.07;;;;;;;4.76;57.42;97485.66;4972731;28;20220;-74
2021/04/23 03:34:14;;;;;;;7.03;3.47;;;;;;;4.79;57.37;97485.34;4971812;28;20181;-71
2021/04/23 03:36:40;;;;;;;6.80;3.63;;;;;;;4.75;57.32;97489.25;4972844;28;20256;-73
2021/04/23 03:39:09;;;;;;;5.97;3.30;;;;;;;4.68;57.20;97490.94;4972381;28;20254;-73
2021/04/23 03:41:35;;;;;;;6.97;3.60;;;;;;;4.64;57.50;97487.84;4972870;28;20642;-73
2021/04/23 03:44:01;;;;;;;6.53;3.03;;;;;;;4.55;57.89;97481.91;4972248;28;20192;-74
2021/04/23 03:46:27;;;;;;;7.70;3.47;;;;;;;4.48;58.48;97488.75;4955409;28;20536;-74
2021/04/23 03:48:54;;;;;;;8.03;3.50;;;;;;;4.54;58.18;97490.69;4955330;28;20207;-74
2021/04/23 03:51:20;;;;;;;8.50;4.00;;;;;;;4.55;58.28;97494.09;4972426;28;20641;-74
2021/04/23 03:53:46;;;;;;;5.73;3.80;;;;;;;4.45;58.73;97496.09;4972737;28;20176;-74
2021/04/23 03:56:13;;;;;;;4.43;2.83;;;;;;;4.45;57.98;97493.50;4971053;28;20351;-74
2021/04/23 03:58:40;;;;;;;7.93;2.77;;;;;;;4.70;57.00;97494.16;4972607;28;20230;-73
2021/04/23 04:01:19;;;;;;;5.97;2.93;;;;;;;4.74;57.04;97493.63;4971838;28;20184;-74
2021/04/23 04:03:47;;;;;;;6.93;3.50;;;;;;;4.83;57.36;97497.00;4972304;28;20614;-75
2021/04/23 04:06:12;;;;;;;10.43;3.40;;;;;;;4.54;58.00;97490.69;4954612;28;20191;-75
2021/04/23 04:08:38;;;;;;;8.33;3.27;;;;;;;4.59;57.93;97501.34;4954971;28;20192;-74
2021/04/23 04:11:05;;;;;;;4.93;3.90;;;;;;;4.54;58.25;97502.84;4956151;28;20212;-74
2021/04/23 04:13:31;;;;;;;6.13;3.50;;;;;;;4.48;58.65;97506.13;4972395;28;20540;-75
2021/04/23 04:15:57;;;;;;;7.47;3.30;;;;;;;4.18;59.93;97508.53;4971482;28;20196;-70
2021/04/23 04:18:24;;;;;;;10.93;4.17;;;;;;;4.17;59.69;97506.13;4954259;28;20291;-74
2021/04/23 04:20:52;;;;;;;7.43;3.60;;;;;;;4.30;59.39;97508.97;4972052;28;20196;-75
2021/04/23 04:23:19;;;;;;;7.13;3.13;;;;;;;4.21;59.41;97511.75;4972177;28;20255;-74
2021/04/23 04:25:50;;;;;;;8.87;3.73;;;;;;;4.16;59.83;97512.28;4978975;28;20208;-74
2021/04/23 04:28:17;;;;;;;10.63;3.63;;;;;;;4.17;60.20;97513.91;4978374;28;20263;-74
2021/04/23 04:30:43;;;;;;;7.67;3.33;;;;;;;4.28;59.90;97516.13;4978172;28;20183;-74
2021/04/23 04:33:10;;;;;;;5.30;3.30;;;;;;;4.23;60.05;97510.63;4977641;28;20187;-75
2021/04/23 04:35:36;;;;;;;6.97;3.60;;;;;;;4.27;60.50;97508.50;4978810;28;20195;-74
2021/04/23 04:38:03;;;;;;;7.13;3.00;;;;;;;4.41;59.79;97512.97;4977966;28;20243;-73
2021/04/23 04:40:29;;;;;;;11.47;3.40;;;;;;;4.40;59.30;97525.13;4978686;28;20641;-75
2021/04/23 04:42:56;;;;;;;7.83;3.00;;;;;;;4.37;59.49;97520.28;4978426;28;20204;-73
2021/04/23 04:45:24;;;;;;;5.77;3.23;;;;;;;4.39;59.86;97526.13;4978246;28;20226;-73
2021/04/23 04:47:50;;;;;;;7.10;3.27;;;;;;;4.45;60.12;97525.44;4978078;28;20184;-74
2021/04/23 04:50:27;;;;;;;7.87;3.20;;;;;;;4.48;59.77;97519.09;4978243;28;21229;-72
2021/04/23 04:52:54;;;;;;;8.53;3.67;;;;;;;4.59;59.98;97526.50;4978517;28;20192;-73
2021/04/23 04:55:23;;;;;;;9.17;4.33;;;;;;;4.78;60.16;97535.66;4959601;28;20188;-72
2021/04/23 04:57:48;;;;;;;7.97;4.87;;;;;;;4.92;60.15;97540.09;4977991;28;20206;-75
2021/04/23 05:00:14;;;;;;;8.13;4.30;;;;;;;5.29;59.39;97540.19;4977697;28;20634;-75
2021/04/23 05:02:40;;;;;;;9.67;4.80;;;;;;;5.67;59.00;97540.16;4978202;28;20185;-71
2021/04/23 05:05:07;;;;;;;7.27;4.30;;;;;;;5.90;58.11;97542.75;4960689;28;20197;-72
2021/04/23 05:07:33;;;;;;;11.23;4.57;;;;;;;6.32;57.21;97540.31;4978879;28;20272;-73
2021/04/23 05:09:59;;;;;;;7.23;4.27;;;;;;;6.68;56.33;97540.38;4978037;28;20607;-70
2021/04/23 05:12:25;;;;;;;12.60;4.73;;;;;;;6.97;55.51;97537.66;4977709;28;20195;-71
2021/04/23 05:14:50;;;;;;;14.00;5.27;;;;;;;7.30;54.73;97540.56;4978235;28;20188;-73
2021/04/23 05:17:16;;;;;;;14.00;5.87;;;;;;;7.59;53.54;97552.66;4977407;28;20664;-73
2021/04/23 05:19:41;;;;;;;11.33;5.07;;;;;;;7.80;52.71;97549.22;4978158;28;20215;-72
2021/04/23 05:22:06;;;;;;;13.80;4.87;;;;;;;7.96;51.59;97545.50;4960462;28;20279;-75
2021/04/23 05:24:32;;;;;;;7.40;4.60;;;;;;;8.09;51.57;97546.38;4978388;28;20219;-73
2021/04/23 05:26:57;;;;;;;13.03;4.93;;;;;;;8.31;51.29;97550.56;4960782;28;20287;-71
2021/04/23 05:29:23;;;;;;;10.87;5.13;;;;;;;8.49;49.94;97557.06;4977770;28;20205;-70
2021/04/23 05:31:48;;;;;;;15.13;5.07;;;;;;;8.39;50.63;97556.63;4977816;28;20656;-74
2021/04/23 05:34:14;;;;;;;11.33;5.13;;;;;;;8.21;50.83;97570.16;4977645;28;20189;-73
2021/04/23 05:36:39;;;;;;;7.63;4.80;;;;;;;8.15;50.64;97565.69;4956869;28;20185;-71
2021/04/23 05:39:05;;;;;;;9.87;5.07;;;;;;;8.43;50.63;97570.91;4974080;28;20193;-77
2021/04/23 05:41:30;;;;;;;10.80;5.10;;;;;;;8.56;50.01;97577.03;4957529;28;20587;-75
2021/04/23 05:43:56;;;;;;;9.83;4.87;;;;;;;8.78;49.40;97569.88;4975727;28;20247;-78
2021/04/23 05:46:21;;;;;;;6.60;4.60;;;;;;;8.83;49.40;97575.31;4974841;28;20188;-78
2021/04/23 05:48:47;;;;;;;7.53;5.03;;;;;;;9.05;48.85;97582.03;4974395;28;20201;-76
2021/04/23 05:51:14;;;;;;;8.60;4.97;;;;;;;9.19;48.22;97586.28;4973827;28;20494;-78
2021/04/23 05:53:39;;;;;;;10.87;4.50;;;;;;;9.07;48.13;97577.41;4975002;28;20236;-77
2021/04/23 05:56:05;;;;;;;7.30;4.07;;;;;;;9.29;47.23;97585.91;4956207;28;20763;-78
2021/04/23 05:58:31;;;;;;;8.87;4.67;;;;;;;9.18;47.31;97582.06;4974985;28;20208;-77
2021/04/23 06:00:57;;;;;;;7.80;4.40;;;;;;;9.41;46.82;97589.56;4974756;28;20188;-72
2021/04/23 06:03:22;;;;;;;8.77;4.27;;;;;;;9.54;46.38;97589.56;4957099;28;20239;-76
2021/04/23 06:05:48;;;;;;;10.60;4.37;;;;;;;9.69;45.79;97585.97;4975090;28;20274;-73
2021/04/23 06:08:14;;;;;;;6.00;4.13;;;;;;;9.79;45.12;97592.41;4973571;28;20188;-74
2021/04/23 06:10:42;;;;;;;6.97;4.53;;;;;;;9.89;44.76;97595.41;4973941;28;20192;-74
2021/04/23 06:13:08;;;;;;;10.80;4.30;;;;;;;9.87;45.13;97592.19;4972004;28;20177;-72
2021/04/23 06:15:34;;;;;;;10.43;4.37;;;;;;;9.84;45.75;97597.84;4974467;28;20188;-76
2021/04/23 06:17:59;;;;;;;9.67;4.47;;;;;;;9.37;46.95;97596.16;4956942;28;20232;-69
2021/04/23 06:20:28;;;;;;;8.40;4.40;;;;;;;9.66;46.94;97594.19;4974094;28;20542;-73
2021/04/23 06:22:54;;;;;;;7.20;4.83;;;;;;;9.60;47.46;97594.00;4974289;28;20263;-74
2021/04/23 06:25:22;;;;;;;12.07;5.43;;;;;;;9.73;46.72;97595.81;4973738;28;20234;-74
2021/04/23 06:27:49;;;;;;;8.77;5.33;;;;;;;9.58;47.18;97603.06;4973838;28;20188;-69
2021/04/23 06:30:18;;;;;;;7.20;4.50;;;;;;;9.46;47.47;97602.03;4972991;28;20200;-73
2021/04/23 06:32:45;;;;;;;6.53;4.90;;;;;;;9.39;47.11;97604.63;4973803;28;20187;-71
2021/04/23 06:35:14;;;;;;;9.40;4.83;;;;;;;9.50;47.10;97605.88;4973011;28;20216;-72
2021/04/23 06:37:39;;;;;;;8.20;4.60;;;;;;;9.43;48.58;97611.09;4956878;28;20196;-72
2021/04/23 06:40:06;;;;;;;10.13;4.83;;;;;;;9.33;48.96;97609.84;4969852;28;20191;-74
2021/04/23 06:42:31;;;;;;;8.60;5.00;;;;;;;9.31;49.34;97617.88;4973837;28;20191;-73
2021/04/23 06:44:57;;;;;;;9.73;5.23;;;;;;;9.61;49.23;97613.13;4974008;28;20279;-72
2021/04/23 06:47:23;;;;;;;11.57;5.57;;;;;;;9.70;47.97;97613.72;4953824;28;20239;-72
2021/04/23 06:49:48;;;;;;;6.73;4.53;;;;;;;9.27;48.18;97618.50;4972282;28;20188;-72
2021/04/23 06:52:13;;;;;;;8.17;4.93;;;;;;;9.21;48.44;97617.47;4955594;28;20603;-72
2021/04/23 06:54:39;;;;;;;7.40;3.83;;;;;;;9.50;47.08;97617.13;4973679;28;20195;-73
2021/04/23 06:57:05;;;;;;;12.63;4.23;;;;;;;9.51;46.38;97620.56;4954878;28;20232;-72
2021/04/23 06:59:30;;;;;;;9.63;3.93;;;;;;;9.47;45.92;97620.13;4955417;28;20731;-72
2021/04/23 07:01:56;;;;;;;6.70;4.33;;;;;;;9.51;46.88;97623.19;4972589;28;20197;-71
2021/04/23 07:04:21;;;;;;;10.07;4.37;;;;;;;9.42;45.89;97621.72;4968146;28;20193;-72
2021/04/23 07:06:47;;;;;;;12.20;4.20;;;;;;;9.44;46.89;97615.31;4974005;28;20293;-73
2021/04/23 07:09:17;;;;;;;8.70;4.53;;;;;;;9.72;46.45;97624.81;4954866;28;20231;-69
2021/04/23 07:11:42;;;;;;;6.73;4.60;;;;;;;9.83;46.58;97626.84;4973810;28;20280;-78
2021/04/23 07:14:08;;;;;;;10.77;4.33;;;;;;;9.85;45.81;97630.06;4974239;28;20275;-78
2021/04/23 07:16:33;;;;;;;8.97;4.43;;;;;;;10.06;45.59;97634.28;4975680;28;20627;-83
2021/04/23 07:18:59;;;;;;;11.13;4.23;;;;;;;10.16;44.70;97626.81;4958570;28;20274;-77
2021/04/23 07:21:24;;;;;;;7.53;4.07;;;;;;;10.15;45.05;97626.00;4957575;28;20324;-83
2021/04/23 07:23:49;;;;;;;7.10;3.50;;;;;;;10.30;44.60;97629.28;4952398;28;20283;-78
2021/04/23 07:26:15;;;;;;;20.40;4.90;;;;;;;10.34;44.05;97629.66;4972898;28;20737;-76
2021/04/23 07:28:40;;;;;;;13.17;4.77;;;;;;;10.08;44.90;97625.22;4956085;28;20192;-73
2021/04/23 07:31:05;;;;;;;7.60;3.63;;;;;;;10.17;44.81;97637.13;4973328;28;20336;-79
2021/04/23 07:33:31;;;;;;;11.53;4.43;;;;;;;9.93;45.24;97637.69;4973595;28;20189;-78
2021/04/23 07:35:56;;;;;;;10.60;4.23;;;;;;;9.79;45.42;97636.09;4972859;28;20195;-77
2021/04/23 07:38:22;;;;;;;8.33;3.77;;;;;;;10.15;44.51;97636.50;4972501;28;20211;-78
2021/04/23 07:40:47;;;;;;;12.23;3.77;;;;;;;10.33;43.59;97638.53;4957072;28;20198;-76
2021/04/23 07:43:13;;;;;;;10.20;4.40;;;;;;;10.31;43.60;97632.66;4975306;28;20197;-77
2021/04/23 07:45:39;;;;;;;9.13;4.13;;;;;;;10.41;43.95;97633.09;4957493;28;20551;-76
2021/04/23 07:48:05;;;;;;;10.50;3.97;;;;;;;10.23;44.26;97635.53;4973098;28;20549;-70
2021/04/23 07:50:31;;;;;;;10.37;4.50;;;;;;;10.51;44.85;97638.72;4972986;28;20189;-75
2021/04/23 07:52:57;;;;;;;8.90;3.80;;;;;;;10.11;44.72;97632.66;4973001;28;20207;-79
2021/04/23 07:55:23;;;;;;;9.67;4.33;;;;;;;10.15;44.84;97633.88;4970803;28;20781;-79
2021/04/23 07:57:50;;;;;;;6.90;3.90;;;;;;;10.25;43.92;97639.53;4955210;28;20242;-79
2021/04/23 08:00:19;;;;;;;10.63;4.40;;;;;;;10.28;44.37;97636.53;4971526;28;20235;-78
2021/04/23 08:02:45;;;;;;;6.47;4.10;;;;;;;10.25;44.43;97636.13;4972742;28;20196;-80
2021/04/23 08:05:13;;;;;;;10.07;3.70;;;;;;;10.16;44.20;97643.38;4972349;28;20208;-80
2021/04/23 08:07:45;;;;;;;8.80;4.60;;;;;;;10.27;44.03;97645.38;4972864;28;20180;-79
2021/04/23 08:10:14;;;;;;;9.57;4.13;;;;;;;10.17;44.68;97633.72;4972129;28;20175;-78
2021/04/23 08:12:39;;;;;;;7.17;4.20;;;;;;;10.42;44.44;97651.22;4971334;28;20235;-80
2021/04/23 08:15:07;;;;;;;11.60;4.57;;;;;;;10.33;43.75;97636.72;4972098;28;20185;-72
2021/04/23 08:17:32;;;;;;;10.80;4.83;;;;;;;10.61;43.59;97641.69;4972691;28;20514;-80
2021/04/23 08:19:58;;;;;;;8.33;4.53;;;;;;;10.64;43.44;97635.25;4953871;28;20267;-78
2021/04/23 08:22:23;;;;;;;15.33;4.93;;;;;;;10.57;43.67;97634.47;4971600;28;20208;-78
2021/04/23 08:24:49;;;;;;;7.80;4.50;;;;;;;10.59;44.19;97637.69;4971753;28;20353;-79
2021/04/23 08:27:14;;;;;;;7.13;4.37;;;;;;;10.88;42.57;97631.13;4971776;28;20633;-77
2021/04/23 08:29:39;;;;;;;8.87;4.40;;;;;;;10.72;42.15;97638.44;4971964;28;20243;-78
2021/04/23 08:32:05;;;;;;;9.67;4.20;;;;;;;10.72;42.59;97637.63;4947237;28;20549;-71
2021/04/23 08:34:31;;;;;;;11.70;5.17;;;;;;;10.64;43.27;97630.81;4972294;28;20488;-80
2021/04/23 08:36:56;;;;;;;10.53;4.67;;;;;;;11.14;43.00;97636.28;4972725;28;20200;-80
2021/04/23 08:39:21;;;;;;;9.77;4.33;;;;;;;11.24;42.47;97637.44;4954027;28;21034;-80
2021/04/23 08:41:47;;;;;;;7.73;4.50;;;;;;;10.98;42.42;97634.16;4955585;28;20185;-81
2021/04/23 08:44:13;;;;;;;7.67;4.80;;;;;;;10.80;43.41;97638.25;4971693;28;20612;-81
2021/04/23 08:46:38;;;;;;;8.67;5.10;;;;;;;10.81;42.67;97641.66;4972009;28;20192;-80
2021/04/23 08:49:06;;;;;;;11.80;5.13;;;;;;;10.62;43.59;97634.66;4971534;28;20184;-72
2021/04/23 08:51:33;;;;;;;13.60;5.33;;;;;;;10.78;43.00;97647.31;4971817;28;20196;-80
2021/04/23 08:53:59;;;;;;;6.27;4.50;;;;;;;10.62;42.38;97647.75;4971680;28;20189;-78
2021/04/23 08:56:25;;;;;;;10.73;4.90;;;;;;;10.61;41.86;97639.09;4970577;28;20884;-81
2021/04/23 08:58:51;;;;;;;7.40;5.13;;;;;;;10.69;43.14;97646.75;4972402;28;20197;-79
2021/04/23 09:01:16;;;;;;;8.80;4.70;;;;;;;10.48;43.37;97646.19;4971339;28;20199;-80
2021/04/23 09:03:42;;;;;;;8.27;4.50;;;;;;;10.48;42.43;97643.56;4972092;28;20185;-81
2021/04/23 09:06:12;;;;;;;7.80;4.17;;;;;;;10.64;41.58;97646.56;4971183;28;20197;-77
2021/04/23 09:08:52;;;;;;;9.97;4.67;;;;;;;10.61;41.53;97639.09;4972011;28;20224;-80
2021/04/23 09:11:21;;;;;;;9.13;5.33;;;;;;;10.80;42.35;97640.06;4974159;28;20176;-81
2021/04/23 09:13:51;;;;;;;8.70;4.97;;;;;;;11.09;42.63;97641.38;4975361;28;20181;-80
2021/04/23 09:16:22;;;;;;;11.80;5.23;;;;;;;11.25;43.05;97639.06;4944128;28;20559;-81
2021/04/23 09:18:48;;;;;;;11.90;5.30;;;;;;;11.12;42.91;97633.88;4975797;28;20201;-74
2021/04/23 09:21:15;;;;;;;11.67;4.73;;;;;;;11.46;41.21;97631.88;4974684;28;20199;-81
2021/04/23 09:23:54;;;;;;;11.40;5.40;;;;;;;11.25;41.92;97631.19;4958123;28;20192;-78
2021/04/23 09:26:31;;;;;;;9.67;4.80;;;;;;;11.25;41.70;97644.31;4974810;28;20262;-82
2021/04/23 09:28:57;;;;;;;8.37;4.40;;;;;;;11.34;41.32;97634.38;4975084;28;20479;-81
2021/04/23 09:31:31;;;;;;;8.73;4.93;;;;;;;11.37;41.29;97633.16;4974489;28;20189;-81
2021/04/23 09:34:07;;;;;;;11.57;4.70;;;;;;;11.31;40.28;97640.03;4974839;28;20192;-80
2021/04/23 09:36:37;;;;;;;6.23;4.03;;;;;;;11.04;40.69;97638.53;4975089;28;20230;-81
2021/04/23 09:39:22;;;;;;;9.47;5.33;;;;;;;11.32;41.12;97641.63;4974707;28;20215;-82
2021/04/23 09:41:54;;;;;;;8.37;4.40;;;;;;;11.21;41.05;97639.66;4975136;28;20203;-81
2021/04/23 09:44:50;;;;;;;10.63;4.90;;;;;;;10.89;42.00;97646.66;4957053;28;20193;-82
2021/04/23 09:47:20;;;;;;;11.47;5.23;;;;;;;10.82;41.58;97644.06;4952282;28;20204;-79
2021/04/23 09:49:50;;;;;;;11.23;5.27;;;;;;;10.83;42.59;97642.25;4957709;28;20679;-81
2021/04/23 09:52:16;;;;;;;11.53;5.80;;;;;;;11.04;41.56;97636.72;4974125;28;20219;-79
2021/04/23 09:54:50;;;;;;;7.83;4.90;;;;;;;11.09;40.30;97631.66;4974546;28;20235;-82
2021/04/23 09:57:20;;;;;;;6.87;4.57;;;;;;;11.08;41.83;97637.94;4955682;28;20694;-77
2021/04/23 10:00:07;;;;;;;11.17;5.13;;;;;;;11.12;41.96;97633.88;4975242;28;20307;-82
2021/04/23 10:02:33;;;;;;;8.47;4.60;;;;;;;11.16;40.95;97636.88;4974968;28;20181;-82
2021/04/23 10:04:59;;;;;;;8.63;4.90;;;;;;;10.90;41.21;97632.53;4975651;28;20251;-80
2021/04/23 10:07:32;;;;;;;9.13;4.63;;;;;;;10.98;40.24;97634.91;4974150;28;20196;-78
2021/04/23 10:10:12;;;;;;;12.10;5.00;;;;;;;10.97;40.44;97632.53;4974318;28;20640;-78
2021/04/23 10:12:55;;;;;;;10.23;5.73;;;;;;;10.89;42.19;97638.78;4974161;28;20180;-79
2021/04/23 10:15:44;;;;;;;8.00;4.90;;;;;;;10.98;41.85;97642.00;4974003;28;20255;-78
2021/04/23 10:18:11;;;;;;;7.17;4.50;;;;;;;10.92;41.71;97632.34;4959395;28;20279;-72
2021/04/23 10:20:42;;;;;;;11.10;5.17;;;;;;;11.03;42.19;97637.75;4974572;28;20193;-76
2021/04/23 10:23:17;;;;;;;7.20;4.80;;;;;;;11.20;41.05;97638.09;4960878;28;20245;-73
2021/04/23 10:25:44;;;;;;;8.83;5.13;;;;;;;11.26;41.01;97645.09;4974285;28;20203;-75
2021/04/23 10:28:11;;;;;;;11.30;4.93;;;;;;;10.91;40.48;97639.41;4973541;28;20188;-70
2021/04/23 10:30:40;;;;;;;8.70;4.60;;;;;;;11.13;40.11;97637.31;4956585;28;20209;-75
2021/04/23 10:33:32;;;;;;;9.93;5.33;;;;;;;11.06;41.14;97637.31;4973805;28;20650;-75
2021/04/23 10:35:58;;;;;;;8.07;5.37;;;;;;;11.11;41.33;97626.19;4957062;28;20189;-74
2021/04/23 10:38:31;;;;;;;9.50;5.03;;;;;;;11.16;41.79;97627.19;4973727;28;20197;-74
2021/04/23 10:41:04;;;;;;;10.23;5.03;;;;;;;11.07;42.44;97625.00;4972637;28;20688;-77
2021/04/23 10:43:31;;;;;;;9.20;5.20;;;;;;;11.35;42.72;97625.47;4973638;28;20199;-76
2021/04/23 10:46:13;;;;;;;10.43;5.13;;;;;;;11.47;42.03;97626.44;4973702;28;20224;-76
2021/04/23 10:48:40;;;;;;;9.43;4.53;;;;;;;11.51;39.61;97630.22;4956537;28;20180;-78
2021/04/23 10:51:11;;;;;;;8.50;4.53;;;;;;;11.58;39.50;97619.69;4974189;28;20201;-74
2021/04/23 10:53:44;;;;;;;10.27;4.70;;;;;;;11.42;39.63;97626.25;4956674;28;20180;-77
2021/04/23 10:56:20;;;;;;;9.00;4.87;;;;;;;11.59;39.08;97626.56;4964927;28;20316;-71
2021/04/23 10:58:46;;;;;;;10.63;4.63;;;;;;;11.78;38.46;97623.00;4955902;28;20212;-76
2021/04/23 11:01:15;;;;;;;7.60;4.13;;;;;;;11.94;37.14;97626.94;4964898;28;20590;-72
2021/04/23 11:03:42;;;;;;;9.53;4.33;;;;;;;11.92;36.04;97632.41;4973473;28;20208;-75
2021/04/23 11:06:27;;;;;;;11.30;4.57;;;;;;;11.81;37.42;97625.22;4973323;28;20254;-77
2021/04/23 11:09:07;;;;;;;11.57;4.60;;;;;;;12.03;39.61;97618.59;4973255;28;20265;-78
2021/04/23 11:11:35;;;;;;;11.57;4.80;;;;;;;11.93;37.57;97614.81;4972368;28;20192;-76
2021/04/23 11:14:26;;;;;;;7.03;4.30;;;;;;;12.09;37.11;97614.28;4973318;28;20180;-76
2021/04/23 11:16:54;;;;;;;10.53;5.10;;;;;;;12.11;38.32;97619.31;4972556;28;20638;-78
2021/04/23 11:19:20;;;;;;;10.33;4.73;;;;;;;12.25;39.28;97619.00;4972568;28;20303;-76
2021/04/23 11:22:03;;;;;;;8.20;5.10;;;;;;;12.25;39.00;97615.56;4973030;28;20268;-76
2021/04/23 11:24:29;;;;;;;10.40;5.17;;;;;;;12.27;38.37;97614.31;4972157;28;20173;-76
2021/04/23 11:26:57;;;;;;;9.17;4.73;;;;;;;12.46;38.14;97615.94;4973006;28;20557;-78
2021/04/23 11:29:41;;;;;;;11.20;4.83;;;;;;;12.41;36.35;97620.25;4972056;28;20189;-73
2021/04/23 11:32:34;;;;;;;7.30;4.47;;;;;;;12.32;36.43;97611.81;4970681;28;20638;-77
2021/04/23 11:35:08;;;;;;;6.43;4.40;;;;;;;12.18;35.30;97612.97;4972480;28;20276;-75
2021/04/23 11:37:42;;;;;;;8.63;4.40;;;;;;;12.19;33.80;97617.22;4954574;28;20667;-76
2021/04/23 11:40:18;;;;;;;8.50;4.13;;;;;;;12.08;34.85;97618.72;4972969;28;20211;-76